sensor_id;sensor_type;location;lat;lon;timestamp;P1;durP1;ratioP1;P2;durP2;ratioP2
36377;SDS011;22402;42.746;23.606;2023-07-30T00:00:48;2.40;;;2.20;;
36377;SDS011;22402;42.746;23.606;2023-07-30T00:03:15;3.03;;;2.40;;
36377;SDS011;22402;42.746;23.606;2023-07-30T00:05:41;2.43;;;2.10;;
36377;SDS011;22402;42.746;23.606;2023-07-30T00:08:06;2.30;;;2.10;;
36377;SDS011;22402;42.746;23.606;2023-07-30T00:10:31;2.30;;;2.10;;
36377;SDS011;22402;42.746;23.606;2023-07-30T00:12:57;2.80;;;2.50;;
36377;SDS011;22402;42.746;23.606;2023-07-30T00:15:22;4.63;;;2.77;;
36377;SDS011;22402;42.746;23.606;2023-07-30T00:17:48;2.83;;;2.57;;
36377;SDS011;22402;42.746;23.606;2023-07-30T00:20:13;3.10;;;2.73;;
36377;SDS011;22402;42.746;23.606;2023-07-30T00:22:39;3.60;;;2.40;;
36377;SDS011;22402;42.746;23.606;2023-07-30T00:25:05;2.57;;;2.37;;
36377;SDS011;22402;42.746;23.606;2023-07-30T00:27:30;2.10;;;1.90;;
36377;SDS011;22402;42.746;23.606;2023-07-30T00:29:56;2.33;;;2.13;;
36377;SDS011;22402;42.746;23.606;2023-07-30T00:32:22;3.10;;;2.40;;
36377;SDS011;22402;42.746;23.606;2023-07-30T00:34:47;3.40;;;2.90;;
36377;SDS011;22402;42.746;23.606;2023-07-30T00:37:13;5.00;;;2.50;;
36377;SDS011;22402;42.746;23.606;2023-07-30T00:39:38;4.83;;;3.07;;
36377;SDS011;22402;42.746;23.606;2023-07-30T00:42:03;9.47;;;2.70;;
36377;SDS011;22402;42.746;23.606;2023-07-30T00:44:29;6.43;;;2.50;;
36377;SDS011;22402;42.746;23.606;2023-07-30T00:46:55;3.70;;;2.40;;
36377;SDS011;22402;42.746;23.606;2023-07-30T00:49:20;2.97;;;2.77;;
36377;SDS011;22402;42.746;23.606;2023-07-30T00:51:46;2.43;;;2.23;;
36377;SDS011;22402;42.746;23.606;2023-07-30T00:54:11;3.40;;;2.43;;
36377;SDS011;22402;42.746;23.606;2023-07-30T00:56:38;2.77;;;2.53;;
36377;SDS011;22402;42.746;23.606;2023-07-30T00:59:12;2.70;;;2.20;;
36377;SDS011;22402;42.746;23.606;2023-07-30T01:01:38;3.93;;;2.50;;
36377;SDS011;22402;42.746;23.606;2023-07-30T01:04:07;2.93;;;2.60;;
36377;SDS011;22402;42.746;23.606;2023-07-30T01:06:32;3.60;;;2.40;;
36377;SDS011;22402;42.746;23.606;2023-07-30T01:08:58;3.00;;;2.73;;
36377;SDS011;22402;42.746;23.606;2023-07-30T01:11:24;3.00;;;2.70;;
36377;SDS011;22402;42.746;23.606;2023-07-30T01:13:49;4.20;;;2.33;;
36377;SDS011;22402;42.746;23.606;2023-07-30T01:16:15;2.60;;;2.40;;
36377;SDS011;22402;42.746;23.606;2023-07-30T01:18:41;3.27;;;2.70;;
36377;SDS011;22402;42.746;23.606;2023-07-30T01:21:06;2.37;;;2.17;;
36377;SDS011;22402;42.746;23.606;2023-07-30T01:23:32;2.40;;;1.77;;
36377;SDS011;22402;42.746;23.606;2023-07-30T01:26:21;2.97;;;2.27;;
36377;SDS011;22402;42.746;23.606;2023-07-30T01:28:51;4.20;;;2.97;;
36377;SDS011;22402;42.746;23.606;2023-07-30T01:31:21;4.13;;;2.67;;
36377;SDS011;22402;42.746;23.606;2023-07-30T01:33:51;3.40;;;2.50;;
36377;SDS011;22402;42.746;23.606;2023-07-30T01:36:19;4.30;;;2.47;;
36377;SDS011;22402;42.746;23.606;2023-07-30T01:38:45;2.77;;;2.53;;
36377;SDS011;22402;42.746;23.606;2023-07-30T01:41:12;3.80;;;2.63;;
36377;SDS011;22402;42.746;23.606;2023-07-30T01:43:38;5.40;;;2.97;;
36377;SDS011;22402;42.746;23.606;2023-07-30T01:46:03;2.80;;;2.47;;
36377;SDS011;22402;42.746;23.606;2023-07-30T01:48:29;3.47;;;2.67;;
36377;SDS011;22402;42.746;23.606;2023-07-30T01:50:55;2.50;;;2.30;;
36377;SDS011;22402;42.746;23.606;2023-07-30T01:53:20;3.27;;;2.23;;
36377;SDS011;22402;42.746;23.606;2023-07-30T01:55:45;3.20;;;2.57;;
36377;SDS011;22402;42.746;23.606;2023-07-30T01:58:14;2.30;;;2.10;;
36377;SDS011;22402;42.746;23.606;2023-07-30T02:00:39;3.57;;;2.60;;
36377;SDS011;22402;42.746;23.606;2023-07-30T02:03:05;4.60;;;2.10;;
36377;SDS011;22402;42.746;23.606;2023-07-30T02:05:31;3.80;;;2.70;;
36377;SDS011;22402;42.746;23.606;2023-07-30T02:07:57;2.57;;;2.37;;
36377;SDS011;22402;42.746;23.606;2023-07-30T02:10:24;2.87;;;2.47;;
36377;SDS011;22402;42.746;23.606;2023-07-30T02:12:50;3.53;;;2.90;;
36377;SDS011;22402;42.746;23.606;2023-07-30T02:15:15;5.00;;;2.97;;
36377;SDS011;22402;42.746;23.606;2023-07-30T02:17:41;4.07;;;2.20;;
36377;SDS011;22402;42.746;23.606;2023-07-30T02:20:06;3.27;;;2.53;;
36377;SDS011;22402;42.746;23.606;2023-07-30T02:22:32;4.07;;;2.60;;
36377;SDS011;22402;42.746;23.606;2023-07-30T02:24:58;2.67;;;2.47;;
36377;SDS011;22402;42.746;23.606;2023-07-30T02:27:23;3.23;;;2.60;;
36377;SDS011;22402;42.746;23.606;2023-07-30T02:29:49;4.43;;;2.63;;
36377;SDS011;22402;42.746;23.606;2023-07-30T02:32:15;5.00;;;2.23;;
36377;SDS011;22402;42.746;23.606;2023-07-30T02:34:40;2.10;;;1.97;;
36377;SDS011;22402;42.746;23.606;2023-07-30T02:37:05;5.03;;;3.00;;
36377;SDS011;22402;42.746;23.606;2023-07-30T02:39:31;2.60;;;2.37;;
36377;SDS011;22402;42.746;23.606;2023-07-30T02:41:56;2.93;;;2.63;;
36377;SDS011;22402;42.746;23.606;2023-07-30T02:44:22;3.80;;;2.17;;
36377;SDS011;22402;42.746;23.606;2023-07-30T02:46:47;2.80;;;2.60;;
36377;SDS011;22402;42.746;23.606;2023-07-30T02:51:48;2.60;;;2.40;;
36377;SDS011;22402;42.746;23.606;2023-07-30T02:54:16;2.73;;;2.40;;
36377;SDS011;22402;42.746;23.606;2023-07-30T02:56:42;2.77;;;2.57;;
36377;SDS011;22402;42.746;23.606;2023-07-30T02:59:08;3.10;;;2.90;;
36377;SDS011;22402;42.746;23.606;2023-07-30T03:01:34;2.77;;;2.57;;
36377;SDS011;22402;42.746;23.606;2023-07-30T03:03:59;4.00;;;2.50;;
36377;SDS011;22402;42.746;23.606;2023-07-30T03:06:25;3.10;;;2.80;;
36377;SDS011;22402;42.746;23.606;2023-07-30T03:08:50;3.60;;;3.10;;
36377;SDS011;22402;42.746;23.606;2023-07-30T03:11:15;2.63;;;2.43;;
36377;SDS011;22402;42.746;23.606;2023-07-30T03:13:41;3.80;;;2.80;;
36377;SDS011;22402;42.746;23.606;2023-07-30T03:16:06;2.60;;;2.40;;
36377;SDS011;22402;42.746;23.606;2023-07-30T03:18:32;2.97;;;2.47;;
36377;SDS011;22402;42.746;23.606;2023-07-30T03:20:58;3.00;;;2.70;;
36377;SDS011;22402;42.746;23.606;2023-07-30T03:23:25;5.80;;;3.03;;
36377;SDS011;22402;42.746;23.606;2023-07-30T03:25:50;3.07;;;2.80;;
36377;SDS011;22402;42.746;23.606;2023-07-30T03:28:16;2.50;;;2.30;;
36377;SDS011;22402;42.746;23.606;2023-07-30T03:30:41;3.70;;;2.53;;
36377;SDS011;22402;42.746;23.606;2023-07-30T03:33:07;3.80;;;3.10;;
36377;SDS011;22402;42.746;23.606;2023-07-30T03:35:32;4.57;;;3.00;;
36377;SDS011;22402;42.746;23.606;2023-07-30T03:37:57;4.53;;;4.00;;
36377;SDS011;22402;42.746;23.606;2023-07-30T03:40:23;3.20;;;2.90;;
36377;SDS011;22402;42.746;23.606;2023-07-30T03:42:49;4.00;;;3.30;;
36377;SDS011;22402;42.746;23.606;2023-07-30T03:45:14;3.43;;;3.13;;
36377;SDS011;22402;42.746;23.606;2023-07-30T03:47:40;3.90;;;2.47;;
36377;SDS011;22402;42.746;23.606;2023-07-30T03:50:05;3.37;;;3.07;;
36377;SDS011;22402;42.746;23.606;2023-07-30T03:52:31;2.57;;;2.37;;
36377;SDS011;22402;42.746;23.606;2023-07-30T03:54:56;4.50;;;2.90;;
36377;SDS011;22402;42.746;23.606;2023-07-30T03:57:22;7.90;;;2.27;;
36377;SDS011;22402;42.746;23.606;2023-07-30T03:59:47;3.30;;;2.97;;
36377;SDS011;22402;42.746;23.606;2023-07-30T04:02:16;2.80;;;2.60;;
36377;SDS011;22402;42.746;23.606;2023-07-30T04:04:42;3.30;;;3.00;;
36377;SDS011;22402;42.746;23.606;2023-07-30T04:07:13;3.00;;;2.80;;
36377;SDS011;22402;42.746;23.606;2023-07-30T04:09:38;3.27;;;2.90;;
36377;SDS011;22402;42.746;23.606;2023-07-30T04:12:04;4.60;;;2.93;;
36377;SDS011;22402;42.746;23.606;2023-07-30T04:14:30;3.77;;;2.93;;
36377;SDS011;22402;42.746;23.606;2023-07-30T04:16:56;3.43;;;3.07;;
36377;SDS011;22402;42.746;23.606;2023-07-30T04:19:21;2.87;;;2.53;;
36377;SDS011;22402;42.746;23.606;2023-07-30T04:21:47;3.23;;;2.93;;
36377;SDS011;22402;42.746;23.606;2023-07-30T04:24:12;7.90;;;3.00;;
36377;SDS011;22402;42.746;23.606;2023-07-30T04:26:38;3.40;;;3.10;;
36377;SDS011;22402;42.746;23.606;2023-07-30T04:29:03;3.20;;;2.87;;
36377;SDS011;22402;42.746;23.606;2023-07-30T04:31:28;4.07;;;2.20;;
36377;SDS011;22402;42.746;23.606;2023-07-30T04:33:54;2.73;;;2.20;;
36377;SDS011;22402;42.746;23.606;2023-07-30T04:36:19;4.80;;;2.40;;
36377;SDS011;22402;42.746;23.606;2023-07-30T04:38:45;3.53;;;2.47;;
36377;SDS011;22402;42.746;23.606;2023-07-30T04:41:10;3.97;;;2.73;;
36377;SDS011;22402;42.746;23.606;2023-07-30T04:43:35;3.23;;;2.90;;
36377;SDS011;22402;42.746;23.606;2023-07-30T04:46:01;2.80;;;2.60;;
36377;SDS011;22402;42.746;23.606;2023-07-30T04:48:26;3.03;;;2.40;;
36377;SDS011;22402;42.746;23.606;2023-07-30T04:50:52;2.80;;;2.50;;
36377;SDS011;22402;42.746;23.606;2023-07-30T04:53:17;5.30;;;2.73;;
36377;SDS011;22402;42.746;23.606;2023-07-30T04:55:43;3.20;;;2.60;;
36377;SDS011;22402;42.746;23.606;2023-07-30T04:58:09;4.23;;;3.03;;
36377;SDS011;22402;42.746;23.606;2023-07-30T05:00:34;5.80;;;2.50;;
36377;SDS011;22402;42.746;23.606;2023-07-30T05:03:00;3.83;;;3.37;;
36377;SDS011;22402;42.746;23.606;2023-07-30T05:05:25;4.00;;;3.10;;
36377;SDS011;22402;42.746;23.606;2023-07-30T05:07:50;4.80;;;3.07;;
36377;SDS011;22402;42.746;23.606;2023-07-30T05:10:16;3.20;;;2.90;;
36377;SDS011;22402;42.746;23.606;2023-07-30T05:12:41;4.07;;;2.77;;
36377;SDS011;22402;42.746;23.606;2023-07-30T05:15:07;5.20;;;2.87;;
36377;SDS011;22402;42.746;23.606;2023-07-30T05:17:33;3.03;;;2.80;;
36377;SDS011;22402;42.746;23.606;2023-07-30T05:19:59;3.13;;;2.77;;
36377;SDS011;22402;42.746;23.606;2023-07-30T05:22:24;2.73;;;2.30;;
36377;SDS011;22402;42.746;23.606;2023-07-30T05:24:50;3.43;;;2.70;;
36377;SDS011;22402;42.746;23.606;2023-07-30T05:27:16;3.50;;;2.63;;
36377;SDS011;22402;42.746;23.606;2023-07-30T05:29:41;2.70;;;2.40;;
36377;SDS011;22402;42.746;23.606;2023-07-30T05:32:07;4.73;;;2.73;;
36377;SDS011;22402;42.746;23.606;2023-07-30T05:34:32;3.20;;;2.47;;
36377;SDS011;22402;42.746;23.606;2023-07-30T05:36:58;2.80;;;2.60;;
36377;SDS011;22402;42.746;23.606;2023-07-30T05:39:24;3.23;;;2.93;;
36377;SDS011;22402;42.746;23.606;2023-07-30T05:41:49;3.70;;;2.40;;
36377;SDS011;22402;42.746;23.606;2023-07-30T05:44:14;3.03;;;2.73;;
36377;SDS011;22402;42.746;23.606;2023-07-30T05:46:40;3.00;;;2.70;;
36377;SDS011;22402;42.746;23.606;2023-07-30T05:49:05;3.87;;;3.10;;
36377;SDS011;22402;42.746;23.606;2023-07-30T05:51:31;4.40;;;3.07;;
36377;SDS011;22402;42.746;23.606;2023-07-30T05:53:56;2.97;;;2.70;;
36377;SDS011;22402;42.746;23.606;2023-07-30T05:56:22;5.23;;;2.77;;
36377;SDS011;22402;42.746;23.606;2023-07-30T05:58:47;3.27;;;2.80;;
36377;SDS011;22402;42.746;23.606;2023-07-30T06:01:13;3.40;;;2.83;;
36377;SDS011;22402;42.746;23.606;2023-07-30T06:03:38;4.33;;;2.00;;
36377;SDS011;22402;42.746;23.606;2023-07-30T06:06:03;3.00;;;2.40;;
36377;SDS011;22402;42.746;23.606;2023-07-30T06:08:29;2.07;;;1.87;;
36377;SDS011;22402;42.746;23.606;2023-07-30T06:10:55;2.50;;;2.30;;
36377;SDS011;22402;42.746;23.606;2023-07-30T06:13:24;2.20;;;2.00;;
36377;SDS011;22402;42.746;23.606;2023-07-30T06:15:50;3.00;;;1.90;;
36377;SDS011;22402;42.746;23.606;2023-07-30T06:18:15;2.37;;;2.17;;
36377;SDS011;22402;42.746;23.606;2023-07-30T06:20:41;3.00;;;2.10;;
36377;SDS011;22402;42.746;23.606;2023-07-30T06:23:06;2.50;;;2.30;;
36377;SDS011;22402;42.746;23.606;2023-07-30T06:25:32;2.37;;;2.10;;
36377;SDS011;22402;42.746;23.606;2023-07-30T06:27:57;3.80;;;2.07;;
36377;SDS011;22402;42.746;23.606;2023-07-30T06:30:23;7.00;;;2.40;;
36377;SDS011;22402;42.746;23.606;2023-07-30T06:32:49;2.77;;;2.47;;
36377;SDS011;22402;42.746;23.606;2023-07-30T06:35:15;4.00;;;2.90;;
36377;SDS011;22402;42.746;23.606;2023-07-30T06:37:40;3.70;;;2.90;;
36377;SDS011;22402;42.746;23.606;2023-07-30T06:40:06;4.80;;;3.27;;
36377;SDS011;22402;42.746;23.606;2023-07-30T06:42:32;2.83;;;2.40;;
36377;SDS011;22402;42.746;23.606;2023-07-30T06:44:58;3.00;;;2.60;;
36377;SDS011;22402;42.746;23.606;2023-07-30T06:47:24;2.40;;;2.13;;
36377;SDS011;22402;42.746;23.606;2023-07-30T06:49:49;2.97;;;2.27;;
36377;SDS011;22402;42.746;23.606;2023-07-30T06:52:15;2.90;;;2.60;;
36377;SDS011;22402;42.746;23.606;2023-07-30T06:54:40;4.30;;;2.90;;
36377;SDS011;22402;42.746;23.606;2023-07-30T06:57:06;3.33;;;2.73;;
36377;SDS011;22402;42.746;23.606;2023-07-30T06:59:31;2.60;;;2.40;;
36377;SDS011;22402;42.746;23.606;2023-07-30T07:01:57;5.23;;;2.67;;
36377;SDS011;22402;42.746;23.606;2023-07-30T07:04:22;3.23;;;2.40;;
36377;SDS011;22402;42.746;23.606;2023-07-30T07:06:48;2.87;;;2.03;;
36377;SDS011;22402;42.746;23.606;2023-07-30T07:09:13;2.37;;;2.17;;
36377;SDS011;22402;42.746;23.606;2023-07-30T07:11:39;1.97;;;1.87;;
36377;SDS011;22402;42.746;23.606;2023-07-30T07:14:04;3.90;;;2.30;;
36377;SDS011;22402;42.746;23.606;2023-07-30T07:16:29;2.20;;;2.00;;
36377;SDS011;22402;42.746;23.606;2023-07-30T07:18:55;2.60;;;2.37;;
36377;SDS011;22402;42.746;23.606;2023-07-30T07:21:21;3.40;;;2.87;;
36377;SDS011;22402;42.746;23.606;2023-07-30T07:23:46;2.30;;;2.10;;
36377;SDS011;22402;42.746;23.606;2023-07-30T07:26:12;3.00;;;2.00;;
36377;SDS011;22402;42.746;23.606;2023-07-30T07:28:37;2.40;;;2.13;;
36377;SDS011;22402;42.746;23.606;2023-07-30T07:31:03;1.97;;;1.77;;
36377;SDS011;22402;42.746;23.606;2023-07-30T07:33:28;2.40;;;2.20;;
36377;SDS011;22402;42.746;23.606;2023-07-30T07:36:06;3.93;;;3.10;;
36377;SDS011;22402;42.746;23.606;2023-07-30T07:38:33;3.10;;;2.63;;
36377;SDS011;22402;42.746;23.606;2023-07-30T07:46:06;1.63;;;1.53;;
36377;SDS011;22402;42.746;23.606;2023-07-30T07:48:38;3.37;;;1.83;;
36377;SDS011;22402;42.746;23.606;2023-07-30T07:51:11;2.00;;;1.80;;
36377;SDS011;22402;42.746;23.606;2023-07-30T07:53:37;2.10;;;1.90;;
36377;SDS011;22402;42.746;23.606;2023-07-30T07:56:03;2.83;;;1.90;;
36377;SDS011;22402;42.746;23.606;2023-07-30T07:58:29;1.70;;;1.60;;
36377;SDS011;22402;42.746;23.606;2023-07-30T08:00:55;1.97;;;1.70;;
36377;SDS011;22402;42.746;23.606;2023-07-30T08:03:21;3.07;;;1.53;;
36377;SDS011;22402;42.746;23.606;2023-07-30T08:05:47;2.30;;;1.93;;
36377;SDS011;22402;42.746;23.606;2023-07-30T08:08:13;2.20;;;1.70;;
36377;SDS011;22402;42.746;23.606;2023-07-30T08:10:39;1.80;;;1.70;;
36377;SDS011;22402;42.746;23.606;2023-07-30T08:13:07;1.73;;;1.47;;
36377;SDS011;22402;42.746;23.606;2023-07-30T08:15:33;2.80;;;1.70;;
36377;SDS011;22402;42.746;23.606;2023-07-30T08:17:58;1.73;;;1.57;;
36377;SDS011;22402;42.746;23.606;2023-07-30T08:20:24;1.70;;;1.60;;
36377;SDS011;22402;42.746;23.606;2023-07-30T08:22:49;2.07;;;1.47;;
36377;SDS011;22402;42.746;23.606;2023-07-30T08:25:15;2.13;;;1.93;;
36377;SDS011;22402;42.746;23.606;2023-07-30T08:27:40;1.43;;;1.33;;
36377;SDS011;22402;42.746;23.606;2023-07-30T08:30:06;1.93;;;1.83;;
36377;SDS011;22402;42.746;23.606;2023-07-30T08:32:32;1.73;;;1.63;;
36377;SDS011;22402;42.746;23.606;2023-07-30T08:34:58;1.57;;;1.47;;
36377;SDS011;22402;42.746;23.606;2023-07-30T08:37:23;1.70;;;1.60;;
36377;SDS011;22402;42.746;23.606;2023-07-30T08:39:49;2.40;;;1.60;;
36377;SDS011;22402;42.746;23.606;2023-07-30T08:42:14;2.30;;;1.80;;
36377;SDS011;22402;42.746;23.606;2023-07-30T08:44:40;2.13;;;1.90;;
36377;SDS011;22402;42.746;23.606;2023-07-30T08:47:08;2.30;;;2.00;;
36377;SDS011;22402;42.746;23.606;2023-07-30T08:49:34;2.07;;;1.97;;
36377;SDS011;22402;42.746;23.606;2023-07-30T08:51:59;3.53;;;2.00;;
36377;SDS011;22402;42.746;23.606;2023-07-30T08:54:27;5.10;;;1.33;;
36377;SDS011;22402;42.746;23.606;2023-07-30T08:56:55;1.57;;;1.47;;
36377;SDS011;22402;42.746;23.606;2023-07-30T08:59:21;2.00;;;1.50;;
36377;SDS011;22402;42.746;23.606;2023-07-30T09:01:50;2.00;;;1.77;;
36377;SDS011;22402;42.746;23.606;2023-07-30T09:04:17;3.33;;;2.00;;
36377;SDS011;22402;42.746;23.606;2023-07-30T09:06:49;1.90;;;1.80;;
36377;SDS011;22402;42.746;23.606;2023-07-30T09:09:15;2.70;;;1.37;;
36377;SDS011;22402;42.746;23.606;2023-07-30T09:11:43;1.37;;;1.20;;
36377;SDS011;22402;42.746;23.606;2023-07-30T09:14:16;1.67;;;1.57;;
36377;SDS011;22402;42.746;23.606;2023-07-30T09:16:45;2.43;;;1.40;;
36377;SDS011;22402;42.746;23.606;2023-07-30T09:19:11;2.17;;;1.38;;
36377;SDS011;22402;42.746;23.606;2023-07-30T09:21:42;1.63;;;1.52;;
36377;SDS011;22402;42.746;23.606;2023-07-30T09:24:08;1.60;;;1.30;;
36377;SDS011;22402;42.746;23.606;2023-07-30T09:26:41;1.60;;;1.50;;
36377;SDS011;22402;42.746;23.606;2023-07-30T09:29:08;7.53;;;1.83;;
36377;SDS011;22402;42.746;23.606;2023-07-30T09:31:48;1.50;;;1.40;;
36377;SDS011;22402;42.746;23.606;2023-07-30T09:34:20;1.40;;;1.30;;
36377;SDS011;22402;42.746;23.606;2023-07-30T09:36:46;2.53;;;1.52;;
36377;SDS011;22402;42.746;23.606;2023-07-30T09:39:16;1.80;;;1.48;;
36377;SDS011;22402;42.746;23.606;2023-07-30T09:41:42;1.55;;;1.45;;
36377;SDS011;22402;42.746;23.606;2023-07-30T09:44:08;2.42;;;1.52;;
36377;SDS011;22402;42.746;23.606;2023-07-30T09:46:34;1.98;;;1.45;;
36377;SDS011;22402;42.746;23.606;2023-07-30T09:49:08;1.40;;;1.30;;
36377;SDS011;22402;42.746;23.606;2023-07-30T09:51:34;1.88;;;1.77;;
36377;SDS011;22402;42.746;23.606;2023-07-30T09:54:02;2.70;;;2.50;;
36377;SDS011;22402;42.746;23.606;2023-07-30T09:56:28;1.80;;;1.70;;
36377;SDS011;22402;42.746;23.606;2023-07-30T09:58:54;1.98;;;1.88;;
36377;SDS011;22402;42.746;23.606;2023-07-30T10:01:19;1.80;;;1.70;;
36377;SDS011;22402;42.746;23.606;2023-07-30T10:03:49;1.70;;;1.60;;
36377;SDS011;22402;42.746;23.606;2023-07-30T10:06:15;1.00;;;1.00;;
36377;SDS011;22402;42.746;23.606;2023-07-30T10:08:41;1.20;;;1.10;;
36377;SDS011;22402;42.746;23.606;2023-07-30T10:11:08;1.00;;;1.00;;
36377;SDS011;22402;42.746;23.606;2023-07-30T10:13:35;1.45;;;1.40;;
36377;SDS011;22402;42.746;23.606;2023-07-30T10:16:02;1.00;;;1.00;;
36377;SDS011;22402;42.746;23.606;2023-07-30T10:18:41;1.73;;;1.17;;
36377;SDS011;22402;42.746;23.606;2023-07-30T10:21:08;1.52;;;1.42;;
36377;SDS011;22402;42.746;23.606;2023-07-30T10:23:35;2.08;;;1.98;;
36377;SDS011;22402;42.746;23.606;2023-07-30T10:26:19;1.63;;;1.52;;
36377;SDS011;22402;42.746;23.606;2023-07-30T10:31:55;1.55;;;1.45;;
36377;SDS011;22402;42.746;23.606;2023-07-30T10:34:26;1.73;;;1.60;;
36377;SDS011;22402;42.746;23.606;2023-07-30T10:36:54;1.25;;;1.15;;
36377;SDS011;22402;42.746;23.606;2023-07-30T10:39:27;1.50;;;1.40;;
36377;SDS011;22402;42.746;23.606;2023-07-30T10:41:54;1.20;;;1.20;;
36377;SDS011;22402;42.746;23.606;2023-07-30T10:44:43;1.17;;;1.15;;
36377;SDS011;22402;42.746;23.606;2023-07-30T10:47:09;1.60;;;1.50;;
36377;SDS011;22402;42.746;23.606;2023-07-30T10:49:39;1.13;;;1.02;;
36377;SDS011;22402;42.746;23.606;2023-07-30T10:52:11;1.40;;;1.33;;
36377;SDS011;22402;42.746;23.606;2023-07-30T10:54:37;1.08;;;0.98;;
36377;SDS011;22402;42.746;23.606;2023-07-30T10:57:03;1.23;;;1.10;;
36377;SDS011;22402;42.746;23.606;2023-07-30T10:59:35;2.38;;;1.15;;
36377;SDS011;22402;42.746;23.606;2023-07-30T11:02:01;1.25;;;1.25;;
36377;SDS011;22402;42.746;23.606;2023-07-30T11:04:27;1.95;;;1.33;;
36377;SDS011;22402;42.746;23.606;2023-07-30T11:06:52;1.00;;;1.00;;
36377;SDS011;22402;42.746;23.606;2023-07-30T11:09:25;1.10;;;1.10;;
36377;SDS011;22402;42.746;23.606;2023-07-30T11:11:52;2.30;;;1.35;;
36377;SDS011;22402;42.746;23.606;2023-07-30T11:14:19;1.80;;;1.50;;
36377;SDS011;22402;42.746;23.606;2023-07-30T11:16:49;1.38;;;1.30;;
36377;SDS011;22402;42.746;23.606;2023-07-30T11:19:19;1.30;;;1.20;;
36377;SDS011;22402;42.746;23.606;2023-07-30T11:21:45;1.30;;;1.20;;
36377;SDS011;22402;42.746;23.606;2023-07-30T11:24:12;1.27;;;1.27;;
36377;SDS011;22402;42.746;23.606;2023-07-30T11:26:37;1.67;;;1.35;;
36377;SDS011;22402;42.746;23.606;2023-07-30T11:29:13;1.42;;;1.33;;
36377;SDS011;22402;42.746;23.606;2023-07-30T11:31:43;1.75;;;1.63;;
36377;SDS011;22402;42.746;23.606;2023-07-30T11:34:08;1.27;;;1.17;;
36377;SDS011;22402;42.746;23.606;2023-07-30T11:36:34;1.15;;;1.08;;
36377;SDS011;22402;42.746;23.606;2023-07-30T11:39:00;1.20;;;1.10;;
36377;SDS011;22402;42.746;23.606;2023-07-30T11:41:26;1.85;;;1.42;;
36377;SDS011;22402;42.746;23.606;2023-07-30T11:43:53;1.10;;;1.10;;
36377;SDS011;22402;42.746;23.606;2023-07-30T11:46:19;1.08;;;0.98;;
36377;SDS011;22402;42.746;23.606;2023-07-30T11:48:48;1.20;;;1.20;;
36377;SDS011;22402;42.746;23.606;2023-07-30T11:53:56;1.20;;;1.10;;
36377;SDS011;22402;42.746;23.606;2023-07-30T11:56:24;2.60;;;2.40;;
36377;SDS011;22402;42.746;23.606;2023-07-30T11:59:00;1.70;;;1.60;;
36377;SDS011;22402;42.746;23.606;2023-07-30T12:01:29;1.48;;;1.40;;
36377;SDS011;22402;42.746;23.606;2023-07-30T12:03:57;1.50;;;1.40;;
36377;SDS011;22402;42.746;23.606;2023-07-30T12:06:24;1.20;;;1.10;;
36377;SDS011;22402;42.746;23.606;2023-07-30T12:09:16;1.52;;;1.42;;
36377;SDS011;22402;42.746;23.606;2023-07-30T12:11:47;0.77;;;0.77;;
36377;SDS011;22402;42.746;23.606;2023-07-30T12:14:18;1.10;;;1.10;;
36377;SDS011;22402;42.746;23.606;2023-07-30T12:16:45;1.45;;;1.35;;
36377;SDS011;22402;42.746;23.606;2023-07-30T12:19:10;1.45;;;1.23;;
36377;SDS011;22402;42.746;23.606;2023-07-30T12:21:36;1.80;;;1.70;;
36377;SDS011;22402;42.746;23.606;2023-07-30T12:24:02;1.13;;;1.10;;
36377;SDS011;22402;42.746;23.606;2023-07-30T12:26:28;1.20;;;1.20;;
36377;SDS011;22402;42.746;23.606;2023-07-30T12:28:54;1.23;;;1.23;;
36377;SDS011;22402;42.746;23.606;2023-07-30T12:31:20;1.10;;;1.00;;
36377;SDS011;22402;42.746;23.606;2023-07-30T12:33:45;1.08;;;1.08;;
36377;SDS011;22402;42.746;23.606;2023-07-30T12:36:13;1.52;;;1.35;;
36377;SDS011;22402;42.746;23.606;2023-07-30T12:38:39;1.73;;;1.25;;
36377;SDS011;22402;42.746;23.606;2023-07-30T12:41:05;1.30;;;1.20;;
36377;SDS011;22402;42.746;23.606;2023-07-30T12:43:30;1.30;;;1.30;;
36377;SDS011;22402;42.746;23.606;2023-07-30T12:45:58;1.40;;;1.30;;
36377;SDS011;22402;42.746;23.606;2023-07-30T12:48:23;1.70;;;1.60;;
36377;SDS011;22402;42.746;23.606;2023-07-30T12:50:49;1.88;;;1.48;;
36377;SDS011;22402;42.746;23.606;2023-07-30T12:53:14;1.42;;;1.33;;
36377;SDS011;22402;42.746;23.606;2023-07-30T12:55:40;1.52;;;1.08;;
36377;SDS011;22402;42.746;23.606;2023-07-30T12:58:05;1.10;;;1.08;;
36377;SDS011;22402;42.746;23.606;2023-07-30T13:00:31;1.52;;;1.42;;
36377;SDS011;22402;42.746;23.606;2023-07-30T13:02:58;1.30;;;1.20;;
36377;SDS011;22402;42.746;23.606;2023-07-30T13:05:23;1.48;;;1.38;;
36377;SDS011;22402;42.746;23.606;2023-07-30T13:07:49;1.60;;;1.48;;
36377;SDS011;22402;42.746;23.606;2023-07-30T13:10:14;1.58;;;1.48;;
36377;SDS011;22402;42.746;23.606;2023-07-30T13:12:40;1.27;;;1.27;;
36377;SDS011;22402;42.746;23.606;2023-07-30T13:15:05;1.50;;;1.50;;
36377;SDS011;22402;42.746;23.606;2023-07-30T13:17:32;1.77;;;1.67;;
36377;SDS011;22402;42.746;23.606;2023-07-30T13:19:57;2.88;;;1.40;;
36377;SDS011;22402;42.746;23.606;2023-07-30T13:22:23;1.90;;;1.58;;
36377;SDS011;22402;42.746;23.606;2023-07-30T13:24:48;1.80;;;1.67;;
36377;SDS011;22402;42.746;23.606;2023-07-30T13:27:14;2.03;;;1.70;;
36377;SDS011;22402;42.746;23.606;2023-07-30T13:29:39;2.28;;;2.03;;
36377;SDS011;22402;42.746;23.606;2023-07-30T13:32:05;2.22;;;2.03;;
36377;SDS011;22402;42.746;23.606;2023-07-30T13:34:31;1.80;;;1.70;;
36377;SDS011;22402;42.746;23.606;2023-07-30T13:36:57;2.35;;;2.17;;
36377;SDS011;22402;42.746;23.606;2023-07-30T13:39:23;2.83;;;2.20;;
36377;SDS011;22402;42.746;23.606;2023-07-30T13:41:48;2.73;;;2.10;;
36377;SDS011;22402;42.746;23.606;2023-07-30T13:44:14;2.00;;;1.90;;
36377;SDS011;22402;42.746;23.606;2023-07-30T13:46:39;2.40;;;2.20;;
36377;SDS011;22402;42.746;23.606;2023-07-30T13:49:05;2.20;;;2.00;;
36377;SDS011;22402;42.746;23.606;2023-07-30T13:51:31;1.80;;;1.70;;
36377;SDS011;22402;42.746;23.606;2023-07-30T13:54:00;2.67;;;2.47;;
36377;SDS011;22402;42.746;23.606;2023-07-30T13:56:27;1.90;;;1.80;;
36377;SDS011;22402;42.746;23.606;2023-07-30T13:58:52;1.77;;;1.67;;
36377;SDS011;22402;42.746;23.606;2023-07-30T14:01:18;2.08;;;1.98;;
36377;SDS011;22402;42.746;23.606;2023-07-30T14:03:44;4.03;;;2.20;;
36377;SDS011;22402;42.746;23.606;2023-07-30T14:06:09;2.20;;;2.10;;
36377;SDS011;22402;42.746;23.606;2023-07-30T14:08:35;2.58;;;2.40;;
36377;SDS011;22402;42.746;23.606;2023-07-30T14:11:01;2.35;;;2.17;;
36377;SDS011;22402;42.746;23.606;2023-07-30T14:13:26;2.07;;;1.97;;
36377;SDS011;22402;42.746;23.606;2023-07-30T14:15:52;2.07;;;1.93;;
36377;SDS011;22402;42.746;23.606;2023-07-30T14:18:17;4.23;;;2.13;;
36377;SDS011;22402;42.746;23.606;2023-07-30T14:20:43;3.30;;;2.43;;
36377;SDS011;22402;42.746;23.606;2023-07-30T14:23:09;2.60;;;2.40;;
36377;SDS011;22402;42.746;23.606;2023-07-30T14:25:36;4.10;;;2.60;;
36377;SDS011;22402;42.746;23.606;2023-07-30T14:28:02;2.43;;;2.23;;
36377;SDS011;22402;42.746;23.606;2023-07-30T14:30:27;1.97;;;1.87;;
36377;SDS011;22402;42.746;23.606;2023-07-30T14:32:53;3.40;;;2.40;;
36377;SDS011;22402;42.746;23.606;2023-07-30T14:35:18;2.33;;;2.17;;
36377;SDS011;22402;42.746;23.606;2023-07-30T14:37:44;2.37;;;2.20;;
36377;SDS011;22402;42.746;23.606;2023-07-30T14:40:10;2.20;;;2.10;;
36377;SDS011;22402;42.746;23.606;2023-07-30T14:42:36;2.47;;;2.10;;